sensor_id;sensor_type;location;lat;lon;timestamp;P1;durP1;ratioP1;P2;durP2;ratioP2
72109;SDS011;59983;52.010;5.420;2022-08-21T00:02:00;5.13;;;4.82;;
72109;SDS011;59983;52.010;5.420;2022-08-21T00:04:27;5.38;;;4.88;;
72109;SDS011;59983;52.010;5.420;2022-08-21T00:06:55;8.45;;;5.30;;
72109;SDS011;59983;52.010;5.420;2022-08-21T00:09:23;6.40;;;5.10;;
72109;SDS011;59983;52.010;5.420;2022-08-21T00:11:50;6.07;;;5.57;;
72109;SDS011;59983;52.010;5.420;2022-08-21T00:14:16;6.70;;;4.97;;
72109;SDS011;59983;52.010;5.420;2022-08-21T00:16:43;5.95;;;5.55;;
72109;SDS011;59983;52.010;5.420;2022-08-21T00:19:10;5.25;;;4.85;;
72109;SDS011;59983;52.010;5.420;2022-08-21T00:21:36;5.10;;;4.80;;
72109;SDS011;59983;52.010;5.420;2022-08-21T00:24:03;5.33;;;5.03;;
72109;SDS011;59983;52.010;5.420;2022-08-21T00:26:29;5.45;;;5.05;;
72109;SDS011;59983;52.010;5.420;2022-08-21T00:28:56;7.60;;;5.80;;
72109;SDS011;59983;52.010;5.420;2022-08-21T00:31:24;5.47;;;5.18;;
72109;SDS011;59983;52.010;5.420;2022-08-21T00:33:51;6.10;;;5.50;;
72109;SDS011;59983;52.010;5.420;2022-08-21T00:36:24;5.43;;;4.93;;
72109;SDS011;59983;52.010;5.420;2022-08-21T00:38:51;6.72;;;6.28;;
72109;SDS011;59983;52.010;5.420;2022-08-21T00:41:17;6.47;;;6.03;;
72109;SDS011;59983;52.010;5.420;2022-08-21T00:44:03;7.75;;;5.57;;
72109;SDS011;59983;52.010;5.420;2022-08-21T00:46:31;5.65;;;5.18;;
72109;SDS011;59983;52.010;5.420;2022-08-21T00:48:58;5.50;;;5.10;;
72109;SDS011;59983;52.010;5.420;2022-08-21T00:51:25;5.82;;;5.43;;
72109;SDS011;59983;52.010;5.420;2022-08-21T00:54:03;6.07;;;5.47;;
72109;SDS011;59983;52.010;5.420;2022-08-21T00:56:30;6.13;;;5.63;;
72109;SDS011;59983;52.010;5.420;2022-08-21T00:58:56;5.93;;;5.38;;
72109;SDS011;59983;52.010;5.420;2022-08-21T01:01:24;4.93;;;4.53;;
72109;SDS011;59983;52.010;5.420;2022-08-21T01:03:51;7.15;;;6.50;;
72109;SDS011;59983;52.010;5.420;2022-08-21T01:06:18;7.97;;;5.72;;
72109;SDS011;59983;52.010;5.420;2022-08-21T01:08:44;6.53;;;5.38;;
72109;SDS011;59983;52.010;5.420;2022-08-21T01:11:13;6.13;;;5.57;;
72109;SDS011;59983;52.010;5.420;2022-08-21T01:13:40;6.23;;;5.63;;
72109;SDS011;59983;52.010;5.420;2022-08-21T01:18:41;4.72;;;4.38;;
72109;SDS011;59983;52.010;5.420;2022-08-21T01:21:17;4.88;;;4.57;;
72109;SDS011;59983;52.010;5.420;2022-08-21T01:23:47;5.88;;;5.50;;
72109;SDS011;59983;52.010;5.420;2022-08-21T01:26:18;5.47;;;4.93;;
72109;SDS011;59983;52.010;5.420;2022-08-21T01:28:49;6.30;;;5.90;;
72109;SDS011;59983;52.010;5.420;2022-08-21T01:31:24;5.57;;;5.07;;
72109;SDS011;59983;52.010;5.420;2022-08-21T01:33:54;5.25;;;4.78;;
72109;SDS011;59983;52.010;5.420;2022-08-21T01:36:22;5.15;;;4.85;;
72109;SDS011;59983;52.010;5.420;2022-08-21T01:38:48;4.83;;;4.43;;
72109;SDS011;59983;52.010;5.420;2022-08-21T01:41:15;5.03;;;4.72;;
72109;SDS011;59983;52.010;5.420;2022-08-21T01:43:42;5.22;;;4.82;;
72109;SDS011;59983;52.010;5.420;2022-08-21T01:46:09;5.10;;;4.80;;
72109;SDS011;59983;52.010;5.420;2022-08-21T01:48:37;6.25;;;5.75;;
72109;SDS011;59983;52.010;5.420;2022-08-21T01:51:04;6.63;;;5.97;;
72109;SDS011;59983;52.010;5.420;2022-08-21T01:53:32;6.50;;;5.90;;
72109;SDS011;59983;52.010;5.420;2022-08-21T01:56:03;6.13;;;5.63;;
72109;SDS011;59983;52.010;5.420;2022-08-21T01:58:37;10.40;;;6.07;;
72109;SDS011;59983;52.010;5.420;2022-08-21T02:01:04;7.30;;;6.60;;
72109;SDS011;59983;52.010;5.420;2022-08-21T02:03:31;6.37;;;5.97;;
72109;SDS011;59983;52.010;5.420;2022-08-21T02:06:02;7.28;;;6.55;;
72109;SDS011;59983;52.010;5.420;2022-08-21T02:08:30;5.80;;;5.50;;
72109;SDS011;59983;52.010;5.420;2022-08-21T02:10:57;6.78;;;6.28;;
72109;SDS011;59983;52.010;5.420;2022-08-21T02:13:23;7.38;;;6.88;;
72109;SDS011;59983;52.010;5.420;2022-08-21T02:15:50;8.23;;;7.03;;
72109;SDS011;59983;52.010;5.420;2022-08-21T02:18:16;8.15;;;7.45;;
72109;SDS011;59983;52.010;5.420;2022-08-21T02:20:45;9.23;;;7.32;;
72109;SDS011;59983;52.010;5.420;2022-08-21T02:23:21;8.73;;;7.95;;
72109;SDS011;59983;52.010;5.420;2022-08-21T02:25:52;7.35;;;6.85;;
72109;SDS011;59983;52.010;5.420;2022-08-21T02:28:18;7.10;;;6.43;;
72109;SDS011;59983;52.010;5.420;2022-08-21T02:30:47;6.65;;;6.20;;
72109;SDS011;59983;52.010;5.420;2022-08-21T02:33:15;6.85;;;6.38;;
72109;SDS011;59983;52.010;5.420;2022-08-21T02:35:42;5.88;;;5.57;;
72109;SDS011;59983;52.010;5.420;2022-08-21T02:38:12;6.28;;;5.78;;
72109;SDS011;59983;52.010;5.420;2022-08-21T02:40:42;6.57;;;6.03;;
72109;SDS011;59983;52.010;5.420;2022-08-21T02:43:16;7.18;;;6.68;;
72109;SDS011;59983;52.010;5.420;2022-08-21T02:45:44;7.55;;;6.80;;
72109;SDS011;59983;52.010;5.420;2022-08-21T02:48:13;8.27;;;7.47;;
72109;SDS011;59983;52.010;5.420;2022-08-21T02:50:44;9.45;;;8.10;;
72109;SDS011;59983;52.010;5.420;2022-08-21T02:53:14;10.00;;;7.80;;
72109;SDS011;59983;52.010;5.420;2022-08-21T02:55:46;9.25;;;8.43;;
72109;SDS011;59983;52.010;5.420;2022-08-21T02:58:15;8.70;;;7.90;;
72109;SDS011;59983;52.010;5.420;2022-08-21T03:00:43;8.93;;;8.15;;
72109;SDS011;59983;52.010;5.420;2022-08-21T03:03:10;9.45;;;8.30;;
72109;SDS011;59983;52.010;5.420;2022-08-21T03:05:38;11.13;;;8.80;;
72109;SDS011;59983;52.010;5.420;2022-08-21T03:08:07;8.93;;;8.23;;
72109;SDS011;59983;52.010;5.420;2022-08-21T03:10:38;9.07;;;8.32;;
72109;SDS011;59983;52.010;5.420;2022-08-21T03:13:07;9.30;;;8.50;;
72109;SDS011;59983;52.010;5.420;2022-08-21T03:15:34;11.60;;;9.65;;
72109;SDS011;59983;52.010;5.420;2022-08-21T03:18:03;9.50;;;8.70;;
72109;SDS011;59983;52.010;5.420;2022-08-21T03:20:31;10.07;;;9.07;;
72109;SDS011;59983;52.010;5.420;2022-08-21T03:22:59;11.18;;;9.20;;
72109;SDS011;59983;52.010;5.420;2022-08-21T03:25:28;10.52;;;9.63;;
72109;SDS011;59983;52.010;5.420;2022-08-21T03:28:06;9.65;;;8.90;;
72109;SDS011;59983;52.010;5.420;2022-08-21T03:30:42;10.13;;;9.23;;
72109;SDS011;59983;52.010;5.420;2022-08-21T03:33:10;10.82;;;9.90;;
72109;SDS011;59983;52.010;5.420;2022-08-21T03:35:41;11.18;;;10.05;;
72109;SDS011;59983;52.010;5.420;2022-08-21T03:38:12;10.23;;;9.35;;
72109;SDS011;59983;52.010;5.420;2022-08-21T03:40:39;9.57;;;8.70;;
72109;SDS011;59983;52.010;5.420;2022-08-21T03:43:07;11.60;;;10.57;;
72109;SDS011;59983;52.010;5.420;2022-08-21T03:45:36;12.10;;;9.95;;
72109;SDS011;59983;52.010;5.420;2022-08-21T03:48:03;10.68;;;9.68;;
72109;SDS011;59983;52.010;5.420;2022-08-21T03:50:32;12.48;;;10.15;;
72109;SDS011;59983;52.010;5.420;2022-08-21T03:53:05;10.05;;;9.02;;
72109;SDS011;59983;52.010;5.420;2022-08-21T03:55:32;10.23;;;9.33;;
72109;SDS011;59983;52.010;5.420;2022-08-21T03:57:59;10.48;;;9.18;;
72109;SDS011;59983;52.010;5.420;2022-08-21T04:00:42;10.77;;;9.70;;
72109;SDS011;59983;52.010;5.420;2022-08-21T04:03:09;12.68;;;10.30;;
72109;SDS011;59983;52.010;5.420;2022-08-21T04:05:35;12.63;;;10.35;;
72109;SDS011;59983;52.010;5.420;2022-08-21T04:08:03;11.80;;;10.00;;
72109;SDS011;59983;52.010;5.420;2022-08-21T04:10:32;10.75;;;9.68;;
72109;SDS011;59983;52.010;5.420;2022-08-21T04:13:01;10.02;;;9.13;;
72109;SDS011;59983;52.010;5.420;2022-08-21T04:15:28;9.70;;;8.80;;
72109;SDS011;59983;52.010;5.420;2022-08-21T04:17:55;10.73;;;9.70;;
72109;SDS011;59983;52.010;5.420;2022-08-21T04:20:21;10.13;;;9.20;;
72109;SDS011;59983;52.010;5.420;2022-08-21T04:22:49;10.35;;;9.45;;
72109;SDS011;59983;52.010;5.420;2022-08-21T04:25:17;9.80;;;9.00;;
72109;SDS011;59983;52.010;5.420;2022-08-21T04:27:46;11.73;;;9.23;;
72109;SDS011;59983;52.010;5.420;2022-08-21T04:30:14;10.43;;;9.27;;
72109;SDS011;59983;52.010;5.420;2022-08-21T04:32:42;10.40;;;9.20;;
72109;SDS011;59983;52.010;5.420;2022-08-21T04:35:10;10.43;;;9.50;;
72109;SDS011;59983;52.010;5.420;2022-08-21T04:37:39;8.65;;;7.95;;
72109;SDS011;59983;52.010;5.420;2022-08-21T04:40:08;9.20;;;7.47;;
72109;SDS011;59983;52.010;5.420;2022-08-21T04:42:51;9.13;;;8.32;;
72109;SDS011;59983;52.010;5.420;2022-08-21T04:45:30;7.30;;;6.70;;
72109;SDS011;59983;52.010;5.420;2022-08-21T04:47:59;7.53;;;6.93;;
72109;SDS011;59983;52.010;5.420;2022-08-21T04:50:31;7.43;;;6.90;;
72109;SDS011;59983;52.010;5.420;2022-08-21T04:53:03;7.45;;;6.90;;
72109;SDS011;59983;52.010;5.420;2022-08-21T04:55:31;7.05;;;6.53;;
72109;SDS011;59983;52.010;5.420;2022-08-21T04:57:58;9.40;;;8.30;;
72109;SDS011;59983;52.010;5.420;2022-08-21T05:00:25;7.85;;;7.35;;
72109;SDS011;59983;52.010;5.420;2022-08-21T05:02:52;6.78;;;6.30;;
72109;SDS011;59983;52.010;5.420;2022-08-21T05:05:25;7.80;;;6.20;;
72109;SDS011;59983;52.010;5.420;2022-08-21T05:07:55;7.93;;;7.18;;
72109;SDS011;59983;52.010;5.420;2022-08-21T05:10:24;8.37;;;7.83;;
72109;SDS011;59983;52.010;5.420;2022-08-21T05:12:51;7.63;;;7.18;;
72109;SDS011;59983;52.010;5.420;2022-08-21T05:15:18;7.53;;;7.07;;
72109;SDS011;59983;52.010;5.420;2022-08-21T05:17:45;7.28;;;6.85;;
72109;SDS011;59983;52.010;5.420;2022-08-21T05:20:25;10.32;;;7.32;;
72109;SDS011;59983;52.010;5.420;2022-08-21T05:22:52;6.73;;;6.33;;
72109;SDS011;59983;52.010;5.420;2022-08-21T05:25:20;6.05;;;5.65;;
72109;SDS011;59983;52.010;5.420;2022-08-21T05:27:48;8.07;;;7.35;;
72109;SDS011;59983;52.010;5.420;2022-08-21T05:30:17;7.90;;;7.30;;
72109;SDS011;59983;52.010;5.420;2022-08-21T05:32:45;7.70;;;7.10;;
72109;SDS011;59983;52.010;5.420;2022-08-21T05:35:13;7.73;;;7.23;;
72109;SDS011;59983;52.010;5.420;2022-08-21T05:37:40;8.82;;;8.07;;
72109;SDS011;59983;52.010;5.420;2022-08-21T05:40:06;8.00;;;7.22;;
72109;SDS011;59983;52.010;5.420;2022-08-21T05:42:49;8.50;;;7.72;;
72109;SDS011;59983;52.010;5.420;2022-08-21T05:45:20;8.30;;;7.80;;
72109;SDS011;59983;52.010;5.420;2022-08-21T05:48:18;8.80;;;7.90;;
72109;SDS011;59983;52.010;5.420;2022-08-21T05:50:47;10.60;;;8.25;;
72109;SDS011;59983;52.010;5.420;2022-08-21T05:53:15;10.20;;;9.13;;
72109;SDS011;59983;52.010;5.420;2022-08-21T05:55:43;11.82;;;10.23;;
72109;SDS011;59983;52.010;5.420;2022-08-21T05:58:15;11.35;;;9.35;;
72109;SDS011;59983;52.010;5.420;2022-08-21T06:00:47;12.80;;;9.73;;
72109;SDS011;59983;52.010;5.420;2022-08-21T06:03:19;10.20;;;9.43;;
72109;SDS011;59983;52.010;5.420;2022-08-21T06:05:50;11.35;;;8.57;;
72109;SDS011;59983;52.010;5.420;2022-08-21T06:08:17;12.55;;;9.10;;
72109;SDS011;59983;52.010;5.420;2022-08-21T06:10:45;14.32;;;9.63;;
72109;SDS011;59983;52.010;5.420;2022-08-21T06:13:13;10.47;;;9.17;;
72109;SDS011;59983;52.010;5.420;2022-08-21T06:15:41;10.23;;;9.23;;
72109;SDS011;59983;52.010;5.420;2022-08-21T06:18:08;13.27;;;7.75;;
72109;SDS011;59983;52.010;5.420;2022-08-21T06:20:35;11.18;;;9.10;;
72109;SDS011;59983;52.010;5.420;2022-08-21T06:23:02;11.77;;;9.43;;
72109;SDS011;59983;52.010;5.420;2022-08-21T06:25:28;9.57;;;8.37;;
72109;SDS011;59983;52.010;5.420;2022-08-21T06:28:03;10.38;;;8.50;;
72109;SDS011;59983;52.010;5.420;2022-08-21T06:30:32;14.15;;;8.43;;
72109;SDS011;59983;52.010;5.420;2022-08-21T06:32:59;16.23;;;8.73;;
72109;SDS011;59983;52.010;5.420;2022-08-21T06:35:26;11.95;;;8.57;;
72109;SDS011;59983;52.010;5.420;2022-08-21T06:37:55;18.53;;;9.27;;
72109;SDS011;59983;52.010;5.420;2022-08-21T06:40:23;16.88;;;9.32;;
72109;SDS011;59983;52.010;5.420;2022-08-21T06:42:50;17.35;;;9.32;;
72109;SDS011;59983;52.010;5.420;2022-08-21T06:45:17;12.93;;;9.35;;
72109;SDS011;59983;52.010;5.420;2022-08-21T06:47:43;12.15;;;8.77;;
72109;SDS011;59983;52.010;5.420;2022-08-21T06:50:10;10.63;;;8.80;;
72109;SDS011;59983;52.010;5.420;2022-08-21T06:52:36;13.77;;;8.55;;
72109;SDS011;59983;52.010;5.420;2022-08-21T06:55:08;13.35;;;8.00;;
72109;SDS011;59983;52.010;5.420;2022-08-21T06:57:35;10.32;;;8.45;;
72109;SDS011;59983;52.010;5.420;2022-08-21T07:00:05;9.52;;;7.78;;
72109;SDS011;59983;52.010;5.420;2022-08-21T07:02:33;14.60;;;7.97;;
72109;SDS011;59983;52.010;5.420;2022-08-21T07:04:59;12.73;;;7.40;;
72109;SDS011;59983;52.010;5.420;2022-08-21T07:07:42;20.05;;;9.32;;
72109;SDS011;59983;52.010;5.420;2022-08-21T07:10:09;16.73;;;7.88;;
72109;SDS011;59983;52.010;5.420;2022-08-21T07:12:47;19.58;;;9.13;;
72109;SDS011;59983;52.010;5.420;2022-08-21T07:15:15;16.17;;;7.17;;
72109;SDS011;59983;52.010;5.420;2022-08-21T07:17:42;10.68;;;7.53;;
72109;SDS011;59983;52.010;5.420;2022-08-21T07:20:09;12.23;;;7.47;;
72109;SDS011;59983;52.010;5.420;2022-08-21T07:22:38;13.38;;;8.57;;
72109;SDS011;59983;52.010;5.420;2022-08-21T07:25:07;13.38;;;8.18;;
72109;SDS011;59983;52.010;5.420;2022-08-21T07:27:34;16.90;;;7.60;;
72109;SDS011;59983;52.010;5.420;2022-08-21T07:30:01;13.90;;;7.88;;
72109;SDS011;59983;52.010;5.420;2022-08-21T07:32:27;16.35;;;9.23;;
72109;SDS011;59983;52.010;5.420;2022-08-21T07:34:54;10.25;;;7.75;;
72109;SDS011;59983;52.010;5.420;2022-08-21T07:37:20;14.27;;;7.22;;
72109;SDS011;59983;52.010;5.420;2022-08-21T07:39:47;11.50;;;7.93;;
72109;SDS011;59983;52.010;5.420;2022-08-21T07:42:15;11.48;;;6.97;;
72109;SDS011;59983;52.010;5.420;2022-08-21T07:44:42;17.83;;;7.95;;
72109;SDS011;59983;52.010;5.420;2022-08-21T07:47:09;17.10;;;7.85;;
72109;SDS011;59983;52.010;5.420;2022-08-21T07:49:35;15.93;;;7.72;;
72109;SDS011;59983;52.010;5.420;2022-08-21T07:52:02;15.37;;;6.70;;
72109;SDS011;59983;52.010;5.420;2022-08-21T07:54:28;15.60;;;7.10;;
72109;SDS011;59983;52.010;5.420;2022-08-21T07:56:59;13.32;;;7.05;;
72109;SDS011;59983;52.010;5.420;2022-08-21T07:59:27;19.05;;;7.68;;
72109;SDS011;59983;52.010;5.420;2022-08-21T08:01:53;17.58;;;7.28;;
72109;SDS011;59983;52.010;5.420;2022-08-21T08:04:20;15.17;;;6.87;;
72109;SDS011;59983;52.010;5.420;2022-08-21T08:06:51;16.42;;;8.77;;
72109;SDS011;59983;52.010;5.420;2022-08-21T08:09:18;13.23;;;7.22;;
72109;SDS011;59983;52.010;5.420;2022-08-21T08:11:44;14.35;;;6.85;;
72109;SDS011;59983;52.010;5.420;2022-08-21T08:14:11;11.32;;;6.03;;
72109;SDS011;59983;52.010;5.420;2022-08-21T08:16:37;11.50;;;7.47;;
72109;SDS011;59983;52.010;5.420;2022-08-21T08:19:04;13.10;;;6.75;;
72109;SDS011;59983;52.010;5.420;2022-08-21T08:21:30;15.93;;;7.32;;
72109;SDS011;59983;52.010;5.420;2022-08-21T08:23:59;17.58;;;7.28;;
72109;SDS011;59983;52.010;5.420;2022-08-21T08:26:43;16.75;;;6.75;;
72109;SDS011;59983;52.010;5.420;2022-08-21T08:29:18;11.53;;;6.97;;
72109;SDS011;59983;52.010;5.420;2022-08-21T08:31:45;17.17;;;7.15;;
72109;SDS011;59983;52.010;5.420;2022-08-21T08:34:11;11.68;;;6.25;;
72109;SDS011;59983;52.010;5.420;2022-08-21T08:36:50;16.67;;;7.65;;
72109;SDS011;59983;52.010;5.420;2022-08-21T08:39:16;10.32;;;6.47;;
72109;SDS011;59983;52.010;5.420;2022-08-21T08:41:59;14.20;;;6.40;;
72109;SDS011;59983;52.010;5.420;2022-08-21T08:44:55;14.18;;;5.70;;
72109;SDS011;59983;52.010;5.420;2022-08-21T08:47:25;11.80;;;5.72;;
72109;SDS011;59983;52.010;5.420;2022-08-21T08:52:30;8.38;;;5.78;;
72109;SDS011;59983;52.010;5.420;2022-08-21T08:57:52;13.10;;;5.90;;
72109;SDS011;59983;52.010;5.420;2022-08-21T09:00:21;11.30;;;5.82;;
72109;SDS011;59983;52.010;5.420;2022-08-21T09:02:50;19.35;;;6.75;;
72109;SDS011;59983;52.010;5.420;2022-08-21T09:05:23;14.07;;;5.00;;
72109;SDS011;59983;52.010;5.420;2022-08-21T09:11:37;8.73;;;5.70;;
72109;SDS011;59983;52.010;5.420;2022-08-21T09:14:30;8.68;;;3.83;;
72109;SDS011;59983;52.010;5.420;2022-08-21T09:17:04;16.15;;;4.35;;
72109;SDS011;59983;52.010;5.420;2022-08-21T09:19:56;8.85;;;4.43;;
72109;SDS011;59983;52.010;5.420;2022-08-21T09:25:36;8.18;;;3.40;;
72109;SDS011;59983;52.010;5.420;2022-08-21T09:28:24;9.60;;;4.35;;
72109;SDS011;59983;52.010;5.420;2022-08-21T09:30:50;10.48;;;3.70;;
72109;SDS011;59983;52.010;5.420;2022-08-21T09:33:21;8.32;;;3.90;;
72109;SDS011;59983;52.010;5.420;2022-08-21T09:35:52;8.67;;;3.83;;
72109;SDS011;59983;52.010;5.420;2022-08-21T09:38:31;10.40;;;3.72;;
72109;SDS011;59983;52.010;5.420;2022-08-21T09:41:06;9.63;;;4.50;;
72109;SDS011;59983;52.010;5.420;2022-08-21T09:43:36;9.00;;;3.17;;
72109;SDS011;59983;52.010;5.420;2022-08-21T09:46:08;9.57;;;3.10;;
72109;SDS011;59983;52.010;5.420;2022-08-21T09:48:41;7.73;;;2.60;;
72109;SDS011;59983;52.010;5.420;2022-08-21T09:51:18;8.85;;;2.95;;
72109;SDS011;59983;52.010;5.420;2022-08-21T09:56:27;9.75;;;3.45;;
72109;SDS011;59983;52.010;5.420;2022-08-21T09:59:17;7.20;;;3.55;;
72109;SDS011;59983;52.010;5.420;2022-08-21T10:02:13;7.13;;;3.60;;
72109;SDS011;59983;52.010;5.420;2022-08-21T10:04:49;9.23;;;3.40;;
72109;SDS011;59983;52.010;5.420;2022-08-21T10:07:19;5.10;;;2.92;;
72109;SDS011;59983;52.010;5.420;2022-08-21T10:09:57;11.07;;;3.60;;
72109;SDS011;59983;52.010;5.420;2022-08-21T10:12:28;8.48;;;3.53;;
72109;SDS011;59983;52.010;5.420;2022-08-21T10:20:40;6.32;;;2.85;;
72109;SDS011;59983;52.010;5.420;2022-08-21T10:23:21;6.72;;;3.78;;
72109;SDS011;59983;52.010;5.420;2022-08-21T10:32:15;6.95;;;3.75;;
72109;SDS011;59983;52.010;5.420;2022-08-21T10:37:37;8.82;;;3.47;;
72109;SDS011;59983;52.010;5.420;2022-08-21T10:43:16;5.87;;;2.43;;
72109;SDS011;59983;52.010;5.420;2022-08-21T10:46:17;7.97;;;2.55;;
72109;SDS011;59983;52.010;5.420;2022-08-21T10:48:59;8.25;;;2.95;;
72109;SDS011;59983;52.010;5.420;2022-08-21T10:52:22;5.90;;;2.50;;
72109;SDS011;59983;52.010;5.420;2022-08-21T10:57:19;7.33;;;3.87;;
72109;SDS011;59983;52.010;5.420;2022-08-21T11:00:07;6.20;;;2.85;;
72109;SDS011;59983;52.010;5.420;2022-08-21T11:02:46;10.07;;;3.70;;
72109;SDS011;59983;52.010;5.420;2022-08-21T11:05:19;8.20;;;2.88;;
72109;SDS011;59983;52.010;5.420;2022-08-21T11:07:53;10.63;;;4.25;;
72109;SDS011;59983;52.010;5.420;2022-08-21T11:10:31;8.60;;;3.63;;
72109;SDS011;59983;52.010;5.420;2022-08-21T11:13:19;9.88;;;2.95;;
72109;SDS011;59983;52.010;5.420;2022-08-21T11:16:00;10.65;;;3.35;;
72109;SDS011;59983;52.010;5.420;2022-08-21T11:18:45;6.13;;;2.70;;
72109;SDS011;59983;52.010;5.420;2022-08-21T11:21:38;6.78;;;2.50;;
72109;SDS011;59983;52.010;5.420;2022-08-21T11:26:54;5.13;;;2.50;;
72109;SDS011;59983;52.010;5.420;2022-08-21T11:29:30;4.55;;;2.35;;
72109;SDS011;59983;52.010;5.420;2022-08-21T11:44:00;8.32;;;2.30;;
72109;SDS011;59983;52.010;5.420;2022-08-21T11:47:03;4.13;;;1.73;;
72109;SDS011;59983;52.010;5.420;2022-08-21T11:49:47;4.55;;;2.30;;
72109;SDS011;59983;52.010;5.420;2022-08-21T11:55:16;5.03;;;2.05;;
72109;SDS011;59983;52.010;5.420;2022-08-21T11:57:57;6.68;;;2.67;;
72109;SDS011;59983;52.010;5.420;2022-08-21T12:00:35;9.38;;;2.47;;
72109;SDS011;59983;52.010;5.420;2022-08-21T12:03:13;4.05;;;2.05;;
72109;SDS011;59983;52.010;5.420;2022-08-21T12:05:44;4.10;;;1.93;;
72109;SDS011;59983;52.010;5.420;2022-08-21T12:08:31;3.75;;;2.38;;
72109;SDS011;59983;52.010;5.420;2022-08-21T12:11:09;3.55;;;1.92;;
72109;SDS011;59983;52.010;5.420;2022-08-21T12:16:34;3.17;;;1.90;;
72109;SDS011;59983;52.010;5.420;2022-08-21T12:19:06;4.60;;;1.93;;
72109;SDS011;59983;52.010;5.420;2022-08-21T12:21:47;5.22;;;2.20;;
72109;SDS011;59983;52.010;5.420;2022-08-21T12:24:45;6.60;;;2.15;;
72109;SDS011;59983;52.010;5.420;2022-08-21T12:29:54;3.70;;;2.00;;
72109;SDS011;59983;52.010;5.420;2022-08-21T12:32:42;4.47;;;1.83;;
72109;SDS011;59983;52.010;5.420;2022-08-21T12:35:17;5.85;;;2.65;;
72109;SDS011;59983;52.010;5.420;2022-08-21T12:40:48;5.18;;;1.70;;
72109;SDS011;59983;52.010;5.420;2022-08-21T12:46:03;6.23;;;1.93;;
72109;SDS011;59983;52.010;5.420;2022-08-21T12:48:41;4.28;;;1.98;;
72109;SDS011;59983;52.010;5.420;2022-08-21T12:51:15;4.35;;;1.67;;
72109;SDS011;59983;52.010;5.420;2022-08-21T12:53:49;7.13;;;2.95;;
72109;SDS011;59983;52.010;5.420;2022-08-21T12:56:18;5.00;;;1.90;;
72109;SDS011;59983;52.010;5.420;2022-08-21T12:58:49;5.17;;;1.90;;
72109;SDS011;59983;52.010;5.420;2022-08-21T13:01:27;3.92;;;1.83;;
72109;SDS011;59983;52.010;5.420;2022-08-21T13:03:58;4.22;;;1.50;;
72109;SDS011;59983;52.010;5.420;2022-08-21T13:06:32;4.50;;;1.40;;
72109;SDS011;59983;52.010;5.420;2022-08-21T13:09:06;5.72;;;1.58;;
72109;SDS011;59983;52.010;5.420;2022-08-21T13:11:36;4.10;;;1.57;;
72109;SDS011;59983;52.010;5.420;2022-08-21T13:14:08;8.10;;;1.67;;
72109;SDS011;59983;52.010;5.420;2022-08-21T13:16:53;4.88;;;1.83;;
72109;SDS011;59983;52.010;5.420;2022-08-21T13:19:22;4.90;;;1.65;;
72109;SDS011;59983;52.010;5.420;2022-08-21T13:21:49;3.78;;;1.70;;
72109;SDS011;59983;52.010;5.420;2022-08-21T13:24:25;4.70;;;1.67;;
72109;SDS011;59983;52.010;5.420;2022-08-21T13:27:18;3.72;;;1.52;;
72109;SDS011;59983;52.010;5.420;2022-08-21T13:29:48;5.85;;;1.55;;
72109;SDS011;59983;52.010;5.420;2022-08-21T13:32:26;3.35;;;1.67;;
72109;SDS011;59983;52.010;5.420;2022-08-21T13:34:56;4.93;;;1.45;;
72109;SDS011;59983;52.010;5.420;2022-08-21T13:37:23;4.13;;;1.47;;
72109;SDS011;59983;52.010;5.420;2022-08-21T13:39:54;4.80;;;1.40;;
72109;SDS011;59983;52.010;5.420;2022-08-21T13:42:21;4.78;;;1.30;;
72109;SDS011;59983;52.010;5.420;2022-08-21T13:44:50;5.30;;;1.60;;
72109;SDS011;59983;52.010;5.420;2022-08-21T13:47:18;4.05;;;1.50;;
72109;SDS011;59983;52.010;5.420;2022-08-21T13:49:46;3.10;;;1.23;;
72109;SDS011;59983;52.010;5.420;2022-08-21T13:52:19;3.70;;;1.40;;
72109;SDS011;59983;52.010;5.420;2022-08-21T13:54:56;4.40;;;1.23;;
72109;SDS011;59983;52.010;5.420;2022-08-21T13:57:25;9.32;;;1.95;;
72109;SDS011;59983;52.010;5.420;2022-08-21T14:03:10;5.23;;;1.53;;
72109;SDS011;59983;52.010;5.420;2022-08-21T14:05:52;3.65;;;1.30;;
72109;SDS011;59983;52.010;5.420;2022-08-21T14:10:57;6.97;;;1.70;;
72109;SDS011;59983;52.010;5.420;2022-08-21T14:13:40;4.70;;;1.60;;
72109;SDS011;59983;52.010;5.420;2022-08-21T14:16:14;3.43;;;1.40;;
72109;SDS011;59983;52.010;5.420;2022-08-21T14:18:50;3.88;;;1.50;;
72109;SDS011;59983;52.010;5.420;2022-08-21T14:21:33;3.17;;;1.30;;
72109;SDS011;59983;52.010;5.420;2022-08-21T14:24:09;6.15;;;1.45;;
72109;SDS011;59983;52.010;5.420;2022-08-21T14:26:48;4.78;;;1.83;;
72109;SDS011;59983;52.010;5.420;2022-08-21T14:29:19;5.00;;;1.63;;
72109;SDS011;59983;52.010;5.420;2022-08-21T14:31:56;4.85;;;1.90;;
72109;SDS011;59983;52.010;5.420;2022-08-21T14:34:25;4.43;;;1.58;;
72109;SDS011;59983;52.010;5.420;2022-08-21T14:36:59;6.35;;;1.55;;
72109;SDS011;59983;52.010;5.420;2022-08-21T14:39:25;6.47;;;2.13;;
72109;SDS011;59983;52.010;5.420;2022-08-21T14:41:52;5.27;;;1.43;;
72109;SDS011;59983;52.010;5.420;2022-08-21T14:44:19;6.25;;;1.60;;
72109;SDS011;59983;52.010;5.420;2022-08-21T14:46:46;8.52;;;1.30;;
72109;SDS011;59983;52.010;5.420;2022-08-21T14:49:23;4.35;;;1.50;;
72109;SDS011;59983;52.010;5.420;2022-08-21T14:51:53;3.15;;;1.83;;
72109;SDS011;59983;52.010;5.420;2022-08-21T14:54:24;6.63;;;1.73;;
72109;SDS011;59983;52.010;5.420;2022-08-21T14:56:58;6.07;;;2.08;;
72109;SDS011;59983;52.010;5.420;2022-08-21T14:59:31;5.00;;;1.67;;
72109;SDS011;59983;52.010;5.420;2022-08-21T15:01:59;7.38;;;2.03;;
72109;SDS011;59983;52.010;5.420;2022-08-21T15:04:26;3.40;;;2.20;;
72109;SDS011;59983;52.010;5.420;2022-08-21T15:06:53;5.23;;;2.50;;
72109;SDS011;59983;52.010;5.420;2022-08-21T15:09:20;5.05;;;1.77;;
72109;SDS011;59983;52.010;5.420;2022-08-21T15:11:47;5.10;;;2.13;;
72109;SDS011;59983;52.010;5.420;2022-08-21T15:14:17;5.18;;;2.03;;
72109;SDS011;59983;52.010;5.420;2022-08-21T15:16:47;6.70;;;2.10;;
72109;SDS011;59983;52.010;5.420;2022-08-21T15:19:14;5.03;;;2.00;;
72109;SDS011;59983;52.010;5.420;2022-08-21T15:21:40;4.38;;;2.20;;
72109;SDS011;59983;52.010;5.420;2022-08-21T15:24:07;4.32;;;2.05;;
72109;SDS011;59983;52.010;5.420;2022-08-21T15:26:34;2.45;;;2.13;;
72109;SDS011;59983;52.010;5.420;2022-08-21T15:29:02;6.68;;;2.50;;
72109;SDS011;59983;52.010;5.420;2022-08-21T15:31:32;4.17;;;2.27;;
72109;SDS011;59983;52.010;5.420;2022-08-21T15:33:59;4.82;;;2.95;;
72109;SDS011;59983;52.010;5.420;2022-08-21T15:36:25;4.13;;;2.33;;
72109;SDS011;59983;52.010;5.420;2022-08-21T15:38:52;5.82;;;2.10;;
72109;SDS011;59983;52.010;5.420;2022-08-21T15:41:18;5.70;;;2.10;;
72109;SDS011;59983;52.010;5.420;2022-08-21T15:43:47;5.93;;;2.10;;
72109;SDS011;59983;52.010;5.420;2022-08-21T15:46:16;5.47;;;1.77;;
72109;SDS011;59983;52.010;5.420;2022-08-21T15:48:44;4.10;;;1.67;;
72109;SDS011;59983;52.010;5.420;2022-08-21T15:51:12;4.78;;;1.90;;
72109;SDS011;59983;52.010;5.420;2022-08-21T15:53:41;9.30;;;2.47;;
72109;SDS011;59983;52.010;5.420;2022-08-21T15:56:17;3.77;;;1.40;;
72109;SDS011;59983;52.010;5.420;2022-08-21T15:58:49;6.40;;;1.65;;
72109;SDS011;59983;52.010;5.420;2022-08-21T16:01:18;10.13;;;2.35;;
72109;SDS011;59983;52.010;5.420;2022-08-21T16:03:48;3.88;;;1.60;;
72109;SDS011;59983;52.010;5.420;2022-08-21T16:06:16;2.30;;;1.50;;
72109;SDS011;59983;52.010;5.420;2022-08-21T16:09:02;5.60;;;1.77;;
72109;SDS011;59983;52.010;5.420;2022-08-21T16:11:29;6.40;;;1.88;;
72109;SDS011;59983;52.010;5.420;2022-08-21T16:13:56;7.13;;;1.58;;
72109;SDS011;59983;52.010;5.420;2022-08-21T16:16:23;3.83;;;1.50;;
72109;SDS011;59983;52.010;5.420;2022-08-21T16:18:50;6.90;;;2.13;;
72109;SDS011;59983;52.010;5.420;2022-08-21T16:21:20;2.90;;;1.80;;